Data for 09/05/2016

Time Sea-Level Adjusted Pressure Absolute Pressure Temperature Relative Humidity Dew Point   
(mb) (inHg) (mb) (inHg) (C) (F) (%) (C) (F)
00:05 1015 29.97 844 24.92 6.4 43.6 90 4.9 40.8
00:10 1014 29.94 844 24.92 6.5 43.6 90 4.9 40.8
00:15 1014 29.94 844 24.92 6.5 43.6 89 4.8 40.7
00:20 1014 29.94 844 24.92 6.5 43.6 89 4.8 40.6
00:25 1014 29.94 844 24.92 6.4 43.5 89 4.7 40.4
00:30 1014 29.94 844 24.92 6.4 43.6 89 4.7 40.4
00:35 1014 29.94 844 24.92 6.4 43.6 89 4.7 40.5
00:40 1014 29.94 844 24.92 6.4 43.6 89 4.7 40.5
00:45 1014 29.94 843 24.89 6.4 43.6 89 4.7 40.5
00:50 1014 29.94 843 24.89 6.4 43.5 88 4.5 40.1
00:55 1014 29.94 844 24.92 6.2 43.2 88 4.4 39.9
01:00 1014 29.94 844 24.92 6.1 43 89 4.4 39.9
01:05 1014 29.94 844 24.92 6.1 43 89 4.3 39.8
01:10 1014 29.94 843 24.89 6.1 43 89 4.4 39.9
01:15 1014 29.94 843 24.89 6.2 43.1 88 4.4 39.9
01:20 1014 29.94 843 24.89 6.2 43.1 88 4.4 39.9
01:25 1014 29.94 843 24.89 6.3 43.3 89 4.5 40.1
01:30 1014 29.94 843 24.89 6.2 43.2 89 4.6 40.2
01:35 1014 29.94 843 24.89 6.2 43.1 89 4.6 40.2
01:40 1014 29.94 843 24.89 6.1 42.9 89 4.5 40
01:45 1014 29.94 843 24.89 6.1 43 90 4.5 40.1
01:50 1014 29.94 843 24.89 6.1 43 90 4.6 40.2
01:55 1014 29.94 843 24.89 6.2 43.1 90 4.6 40.3
02:00 1014 29.94 843 24.89 6.2 43.2 90 4.6 40.3
02:05 1014 29.94 843 24.89 6.2 43.2 90 4.7 40.5
02:10 1014 29.94 843 24.89 6.2 43.2 90 4.7 40.4
02:15 1014 29.94 843 24.89 6.2 43.1 90 4.7 40.5
02:20 1014 29.94 843 24.89 6.3 43.3 90 4.8 40.7
02:25 1014 29.94 843 24.89 6.4 43.5 89 4.8 40.6
02:30 1014 29.94 843 24.89 6.5 43.7 88 4.7 40.5
02:35 1014 29.94 843 24.89 6.6 43.9 88 4.8 40.6
02:40 1014 29.94 843 24.89 6.6 44 88 4.7 40.5
02:45 1014 29.94 843 24.89 6.7 44 86 4.5 40.2
02:50 1014 29.94 843 24.89 6.7 44.1 86 4.6 40.3
02:55 1014 29.94 843 24.89 6.8 44.2 86 4.6 40.3
03:00 1014 29.94 843 24.89 6.8 44.2 86 4.5 40.2
03:05 1014 29.94 843 24.89 6.8 44.3 86 4.6 40.2
03:10 1014 29.94 843 24.89 6.7 44.1 88 4.9 40.9
03:15 1014 29.94 843 24.89 6.6 43.8 89 5 40.9
03:20 1013 29.91 843 24.89 6.4 43.5 90 4.9 40.9
03:25 1013 29.91 843 24.89 6.1 43 91 4.8 40.6
03:30 1014 29.94 843 24.89 6 42.8 91 4.7 40.5
03:35 1014 29.94 843 24.89 5.9 42.6 92 4.6 40.4
03:40 1014 29.94 843 24.89 5.9 42.6 92 4.6 40.3
03:45 1014 29.94 843 24.89 5.9 42.6 91 4.5 40.2
03:50 1014 29.94 843 24.89 6.1 42.9 91 4.7 40.5
03:55 1014 29.94 843 24.89 6.2 43.1 91 4.8 40.7
04:00 1014 29.94 843 24.89 6.2 43.2 91 4.9 40.8
04:05 1014 29.94 843 24.89 6.3 43.3 91 4.9 40.8
04:10 1014 29.94 843 24.89 6.2 43.2 91 4.9 40.8
04:15 1014 29.94 843 24.89 6.2 43.2 91 4.9 40.8
04:20 1014 29.94 843 24.89 6.3 43.3 92 5 41.1
04:25 1014 29.94 843 24.89 6.2 43.1 92 5 40.9
04:30 1014 29.94 843 24.89 6.1 43 92 4.9 40.8
04:35 1014 29.94 843 24.89 6.1 42.9 92 4.9 40.8
04:40 1014 29.94 844 24.92 6.1 43 92 4.9 40.8
04:45 1014 29.94 844 24.92 6.1 42.9 92 4.9 40.8
04:50 1014 29.94 844 24.92 6 42.8 92 4.8 40.6
04:55 1014 29.94 844 24.92 6 42.8 92 4.8 40.7
05:00 1014 29.94 843 24.89 6 42.7 92 4.8 40.7
05:05 1014 29.94 843 24.89 5.9 42.6 93 4.8 40.6
05:10 1014 29.94 843 24.89 5.8 42.5 93 4.8 40.6
05:15 1014 29.94 843 24.89 5.8 42.4 93 4.8 40.6
05:20 1014 29.94 843 24.89 5.8 42.4 93 4.8 40.6
05:25 1014 29.94 843 24.89 5.7 42.3 93 4.7 40.5
05:30 1014 29.94 843 24.89 5.7 42.3 93 4.7 40.4
05:35 1014 29.94 843 24.89 5.7 42.2 93 4.6 40.3
05:40 1014 29.94 843 24.89 5.6 42.1 93 4.6 40.2
05:45 1014 29.94 843 24.89 5.6 42.1 93 4.5 40.1
05:50 1014 29.94 843 24.89 5.6 42.1 93 4.5 40.1
05:55 1014 29.94 844 24.92 5.7 42.2 92 4.6 40.2
06:00 1014 29.94 844 24.92 5.7 42.3 92 4.5 40.1
06:05 1014 29.94 844 24.92 5.7 42.3 92 4.6 40.2
06:10 1015 29.97 844 24.92 5.8 42.4 92 4.5 40.1
06:15 1014 29.94 844 24.92 5.8 42.4 92 4.5 40.2
06:20 1014 29.94 844 24.92 5.8 42.5 91 4.5 40.1
06:25 1015 29.97 844 24.92 5.9 42.6 91 4.5 40.2
06:30 1015 29.97 844 24.92 5.9 42.7 91 4.6 40.2
06:35 1015 29.97 844 24.92 6.1 42.9 90 4.6 40.3
06:40 1015 29.97 844 24.92 6 42.8 89 4.3 39.7
06:45 1015 29.97 844 24.92 5.9 42.6 90 4.3 39.7
06:50 1015 29.97 844 24.92 5.7 42.3 91 4.3 39.7
06:55 1015 29.97 844 24.92 5.6 42.1 91 4.3 39.7
07:00 1015 29.97 844 24.92 5.7 42.2 91 4.4 39.9
07:05 1015 29.97 844 24.92 5.8 42.4 91 4.5 40.1
07:10 1015 29.97 844 24.92 5.8 42.5 91 4.5 40.1
07:15 1015 29.97 844 24.92 5.9 42.6 91 4.6 40.2
07:20 1015 29.97 844 24.92 6 42.7 91 4.6 40.3
07:25 1015 29.97 844 24.92 6 42.8 90 4.6 40.2
07:30 1015 29.97 844 24.92 6 42.9 90 4.5 40.2
07:35 1015 29.97 844 24.92 6 42.8 90 4.4 40
07:40 1015 29.97 845 24.95 6 42.7 90 4.5 40.1
07:45 1015 29.97 845 24.95 6.1 43 91 4.7 40.5
07:50 1015 29.97 845 24.95 6.3 43.3 90 4.7 40.5
07:55 1015 29.97 845 24.95 6.3 43.4 90 4.8 40.6
08:00 1015 29.97 845 24.95 6.4 43.5 90 4.9 40.9
08:05 1015 29.97 845 24.95 6.4 43.6 90 4.9 40.7
08:10 1016 30 845 24.95 6.3 43.4 91 4.9 40.8
08:15 1016 30 845 24.95 6.5 43.7 91 5.1 41.2
08:20 1016 30 845 24.95 6.6 43.8 90 5.1 41.1
08:25 1016 30 845 24.95 6.6 43.8 90 5.1 41.2
08:30 1016 30 845 24.95 6.4 43.6 91 5.1 41.1
08:35 1016 30 845 24.95 6.5 43.7 90 5 41
08:40 1016 30 845 24.95 6.5 43.6 90 5 41
08:45 1016 30 845 24.95 6.5 43.7 90 5 41.1
08:50 1016 30 845 24.95 6.6 43.8 90 5.1 41.1
08:55 1016 30 845 24.95 6.7 44 89 5.1 41.1
09:00 1016 30 845 24.95 6.8 44.3 89 5.1 41.2
09:05 1016 30 845 24.95 6.9 44.3 88 5 41.1
09:10 1016 30 845 24.95 7 44.7 88 5.2 41.4
09:15 1016 30 845 24.95 7.2 44.9 88 5.3 41.5
09:20 1016 30 845 24.95 7.3 45.2 87 5.3 41.5
09:25 1016 30 845 24.95 7.3 45.1 86 5.1 41.2
09:30 1016 30 845 24.95 7.2 44.9 88 5.3 41.5
09:35 1016 30 845 24.95 7.4 45.2 86 5.2 41.4
09:40 1016 30 845 24.95 7.4 45.3 87 5.4 41.7
09:45 1016 30 845 24.95 7.4 45.3 86 5.2 41.4
09:50 1016 30 846 24.98 7.3 45.2 86 5.2 41.3
09:55 1016 30 846 24.98 7.3 45.2 86 5.2 41.3
10:00 1016 30 846 24.98 7.3 45.1 86 5.1 41.1
10:05 1017 30.03 846 24.98 7.3 45.2 85 5 41.1
10:10 1017 30.03 846 24.98 7.3 45.1 87 5.3 41.5
10:15 1017 30.03 846 24.98 7.2 44.9 88 5.4 41.7
10:20 1017 30.03 846 24.98 7.1 44.7 88 5.2 41.3
10:25 1017 30.03 846 24.98 6.8 44.2 88 4.9 40.8
10:30 1017 30.03 846 24.98 6.7 44.1 88 4.9 40.7
10:35 1017 30.03 846 24.98 6.7 44.1 89 5 41
10:40 1017 30.03 846 24.98 6.8 44.2 88 4.9 40.9
10:45 1017 30.03 846 24.98 6.9 44.4 88 5.1 41.1
10:50 1017 30.03 846 24.98 7 44.5 88 5.1 41.3
10:55 1017 30.03 846 24.98 7.1 44.7 87 5.1 41.3
11:00 1017 30.03 846 24.98 7.1 44.7 87 5 41
11:05 1017 30.03 846 24.98 7.1 44.7 86 4.8 40.7
11:10 1017 30.03 846 24.98 7.1 44.7 86 4.9 40.9
11:15 1017 30.03 846 24.98 7.2 44.9 85 4.8 40.6
11:20 1017 30.03 846 24.98 7.3 45.1 85 4.9 40.9
11:25 1017 30.03 846 24.98 7.4 45.3 84 4.9 40.9
11:30 1017 30.03 846 24.98 7.4 45.3 83 4.7 40.4
11:35 1017 30.03 846 24.98 7.4 45.4 82 4.5 40.1
11:40 1017 30.03 846 24.98 7.4 45.4 83 4.8 40.7
11:45 1017 30.03 846 24.98 7.5 45.5 84 4.9 40.8
11:50 1017 30.03 846 24.98 7.5 45.6 84 5 41
11:55 1017 30.03 847 25.01 7.6 45.7 83 4.9 40.8
12:00 1017 30.03 847 25.01 7.6 45.7 83 4.9 40.7
12:05 1017 30.03 847 25.01 7.7 45.8 83 5 41
12:10 1017 30.03 847 25.01 7.7 45.8 84 5.2 41.4
12:15 1017 30.03 847 25.01 7.8 46 84 5.2 41.3
12:20 1018 30.06 847 25.01 7.8 46 85 5.4 41.7
12:25 1018 30.06 847 25.01 7.9 46.2 85 5.5 41.9
12:30 1018 30.06 847 25.01 8 46.5 78 4.5 40
12:35 1018 30.06 847 25.01 8.1 46.5 79 4.6 40.3
12:40 1018 30.06 847 25.01 8.1 46.5 75 3.9 39.1
12:45 1018 30.06 847 25.01 8 46.3 74 3.6 38.5
12:50 1018 30.06 847 25.01 8 46.4 74 3.6 38.5
12:55 1018 30.06 847 25.01 8 46.4 74 3.7 38.6
13:00 1018 30.06 847 25.01 8.1 46.5 75 3.9 39.1
13:05 1018 30.06 847 25.01 8.2 46.8 72 3.5 38.4
13:10 1018 30.06 847 25.01 8.2 46.7 70 3.2 37.7
13:15 1018 30.06 847 25.01 8 46.4 70 3 37.3
13:20 1018 30.06 847 25.01 7.8 46 73 3.3 38
13:25 1018 30.06 847 25.01 7.7 45.9 72 3 37.4
13:30 1018 30.06 847 25.01 7.7 45.8 73 3.1 37.6
13:35 1018 30.06 847 25.01 7.8 46 71 2.9 37.2
13:40 1018 30.06 848 25.04 7.8 46 72 3.2 37.7
13:45 1018 30.06 848 25.04 7.9 46.2 70 2.8 37
13:50 1018 30.06 848 25.04 7.9 46.2 71 3 37.4
13:55 1018 30.06 848 25.04 7.9 46.3 72 3.2 37.7
14:00 1018 30.06 848 25.04 8 46.4 72 3.3 38
14:05 1018 30.06 848 25.04 8.1 46.6 72 3.4 38.1
14:10 1018 30.06 848 25.04 8.1 46.6 72 3.4 38.1
14:15 1018 30.06 848 25.04 8.2 46.7 72 3.5 38.2
14:20 1018 30.06 848 25.04 8.2 46.8 71 3.3 38
14:25 1019 30.09 848 25.04 8.2 46.8 71 3.3 37.9
14:30 1019 30.09 848 25.04 8.2 46.8 71 3.3 38
14:35 1019 30.09 848 25.04 8.4 47 70 3.3 37.9
14:40 1019 30.09 848 25.04 8.4 47.1 71 3.5 38.3
14:45 1019 30.09 848 25.04 8.4 47.2 72 3.7 38.7
14:50 1019 30.09 848 25.04 8.5 47.3 76 4.6 40.3
14:55 1019 30.09 848 25.04 8.3 46.9 76 4.2 39.6
15:00 1019 30.09 848 25.04 8.2 46.7 78 4.5 40.1
15:05 1019 30.09 848 25.04 8.2 46.7 78 4.7 40.4
15:10 1019 30.09 848 25.04 8.3 46.9 77 4.5 40.1
15:15 1019 30.09 848 25.04 8.1 46.6 80 5 40.9
15:20 1019 30.09 848 25.04 8.2 46.7 81 5 41.1
15:25 1019 30.09 848 25.04 8.4 47.1 81 5.4 41.7
15:30 1019 30.09 848 25.04 8.6 47.5 80 5.3 41.5
15:35 1019 30.09 848 25.04 8.9 47.9 81 5.8 42.4
15:40 1019 30.09 848 25.04 9.1 48.3 79 5.7 42.2
15:45 1019 30.09 848 25.04 9.5 49 73 5 40.9
15:50 1019 30.09 848 25.04 9.5 49.2 74 5.2 41.3
15:55 1019 30.09 848 25.04 9.8 49.6 73 5.2 41.4
16:00 1019 30.09 848 25.04 9.7 49.4 74 5.3 41.5
16:05 1019 30.09 848 25.04 9.3 48.7 75 5.1 41.3
16:10 1019 30.09 848 25.04 9.4 49 75 5.2 41.3
16:15 1019 30.09 848 25.04 9.5 49 74 5 41.1
16:20 1019 30.09 848 25.04 9.8 49.7 71 4.8 40.6
16:25 1019 30.09 848 25.04 10.2 50.4 70 5.1 41.2
16:30 1019 30.09 849 25.07 9.8 49.6 71 4.9 40.8
16:35 1019 30.09 849 25.07 9.9 49.8 68 4.4 39.8
16:40 1019 30.09 849 25.07 9.8 49.6 70 4.5 40.1
16:45 1019 30.09 849 25.07 9.9 49.8 69 4.6 40.2
16:50 1019 30.09 849 25.07 9.6 49.3 69 4.2 39.6
16:55 1019 30.09 849 25.07 9.5 49 72 4.8 40.6
17:00 1019 30.09 849 25.07 10 50 70 4.7 40.5
17:05 1019 30.09 849 25.07 10 50 70 4.7 40.5
17:10 1019 30.09 849 25.07 10.2 50.3 70 4.9 40.9
17:15 1019 30.09 849 25.07 10.4 50.6 68 4.7 40.5
17:20 1019 30.09 849 25.07 10 49.9 68 4.4 39.8
17:25 1019 30.09 849 25.07 10 49.9 69 4.6 40.3
17:30 1019 30.09 849 25.07 9.9 49.8 70 4.6 40.3
17:35 1019 30.09 849 25.07 9.8 49.7 70 4.7 40.4
17:40 1019 30.09 849 25.07 9.7 49.5 69 4.3 39.7
17:45 1019 30.09 849 25.07 9.7 49.5 68 4.1 39.5
17:50 1019 30.09 849 25.07 9.7 49.5 69 4.2 39.6
17:55 1019 30.09 849 25.07 9.6 49.3 69 4.3 39.7
18:00 1019 30.09 849 25.07 9.6 49.2 68 4 39.2
18:05 1019 30.09 849 25.07 9.5 49.2 70 4.4 39.9
18:10 1019 30.09 849 25.07 9.4 49 68 3.9 39
18:15 1019 30.09 849 25.07 9.4 48.9 72 4.6 40.2
18:20 1019 30.09 849 25.07 9.4 48.9 74 5.1 41.2
18:25 1019 30.09 849 25.07 9.3 48.7 77 5.4 41.6
18:30 1019 30.09 849 25.07 9.1 48.4 74 4.8 40.6
18:35 1019 30.09 849 25.07 9 48.2 75 4.9 40.8
18:40 1019 30.09 849 25.07 8.9 48 79 5.5 41.8
18:45 1019 30.09 849 25.07 8.7 47.7 78 5.2 41.3
18:50 1019 30.09 848 25.04 8.7 47.6 78 5 41
18:55 1019 30.09 849 25.07 8.5 47.3 78 4.9 40.9
19:00 1019 30.09 849 25.07 8.3 47 78 4.8 40.7
19:05 1020 30.12 849 25.07 8.2 46.8 79 4.9 40.8
19:10 1020 30.12 849 25.07 8.1 46.5 79 4.7 40.4
19:15 1020 30.12 849 25.07 7.9 46.3 78 4.3 39.8
19:20 1020 30.12 849 25.07 7.8 46.1 80 4.6 40.2
19:25 1020 30.12 849 25.07 7.7 45.8 81 4.6 40.3
19:30 1020 30.12 849 25.07 7.5 45.6 83 4.8 40.6
19:35 1020 30.12 849 25.07 7.3 45.1 84 4.8 40.6
19:40 1020 30.12 849 25.07 7.1 44.7 84 4.6 40.3
19:45 1020 30.12 849 25.07 7.1 44.8 85 4.7 40.4
19:50 1020 30.12 849 25.07 6.9 44.5 86 4.7 40.5
19:55 1020 30.12 849 25.07 6.6 43.9 86 4.5 40.1
20:00 1020 30.12 849 25.07 6.4 43.6 87 4.4 39.8
20:05 1020 30.12 849 25.07 6.3 43.3 86 4.2 39.5
20:10 1020 30.12 849 25.07 6.4 43.5 86 4.2 39.6
20:15 1020 30.12 849 25.07 6.4 43.4 86 4.1 39.5
20:20 1020 30.12 849 25.07 6.1 43 86 4 39.2
20:25 1020 30.12 849 25.07 6.2 43.1 86 4.1 39.3
20:30 1020 30.12 849 25.07 6 42.9 86 3.9 39
20:35 1020 30.12 849 25.07 5.9 42.6 87 3.8 38.9
20:40 1020 30.12 849 25.07 5.6 42.2 87 3.7 38.7
20:45 1020 30.12 849 25.07 5.3 41.6 88 3.5 38.4
20:50 1020 30.12 849 25.07 5.1 41.1 89 3.4 38.1
20:55 1020 30.12 849 25.07 5.1 41.2 87 3 37.5
21:00 1020 30.12 849 25.07 5 41 88 3.2 37.7
21:05 1020 30.12 849 25.07 5.1 41.1 87 3.2 37.7
21:10 1020 30.12 849 25.07 5.2 41.4 86 3.1 37.6
21:15 1020 30.12 849 25.07 5.2 41.3 87 3.1 37.6
21:20 1020 30.12 849 25.07 5.1 41.1 87 3 37.4
21:25 1020 30.12 849 25.07 5.2 41.3 86 3 37.3
21:30 1020 30.12 849 25.07 5.1 41.2 86 3 37.4
21:35 1020 30.12 849 25.07 5 41.1 86 2.9 37.2
21:40 1020 30.12 849 25.07 4.9 40.7 87 2.8 37.1
21:45 1020 30.12 849 25.07 4.7 40.5 86 2.7 36.8
21:50 1020 30.12 849 25.07 4.8 40.6 86 2.6 36.7
21:55 1020 30.12 849 25.07 4.9 40.9 84 2.5 36.5
22:00 1020 30.12 849 25.07 4.8 40.7 85 2.5 36.6
22:05 1020 30.12 849 25.07 4.6 40.4 86 2.4 36.4
22:10 1020 30.12 849 25.07 4.6 40.4 86 2.5 36.4
22:15 1020 30.12 849 25.07 4.7 40.5 86 2.5 36.6
22:20 1020 30.12 849 25.07 4.6 40.3 86 2.5 36.5
22:25 1020 30.12 849 25.07 4.6 40.3 85 2.4 36.3
22:30 1020 30.12 849 25.07 4.9 40.8 84 2.3 36.2
22:35 1020 30.12 849 25.07 5 41 84 2.5 36.5
22:40 1020 30.12 849 25.07 5.2 41.4 82 2.4 36.4
22:45 1020 30.12 849 25.07 5.3 41.5 83 2.6 36.7
22:50 1020 30.12 849 25.07 5.2 41.3 83 2.6 36.6
22:55 1020 30.12 849 25.07 5.1 41.1 83 2.4 36.4
23:00 1020 30.12 849 25.07 5 41 83 2.4 36.3
23:05 1020 30.12 849 25.07 5 40.9 83 2.3 36.1
23:10 1020 30.12 849 25.07 4.9 40.8 84 2.3 36.2
23:15 1020 30.12 849 25.07 4.8 40.7 83 2.2 36
23:20 1020 30.12 849 25.07 4.9 40.7 83 2.2 36
23:25 1020 30.12 849 25.07 4.9 40.7 83 2.2 35.9
23:30 1020 30.12 849 25.07 4.6 40.4 84 2.1 35.8
23:35 1020 30.12 849 25.07 4.5 40.1 84 2 35.6
23:40 1020 30.12 849 25.07 4.5 40.1 84 2 35.6
23:45 1020 30.12 849 25.07 4.6 40.2 84 2 35.6
23:50 1020 30.12 849 25.07 4.5 40.2 83 1.9 35.4
23:55 1019 30.09 849 25.07 4.6 40.3 82 1.8 35.2
24:00 1019 30.09 849 25.07 4.5 40.1 82 1.7 35